createdAt,value
2022-08-26T03:42:58.576Z,7.00
2022-08-26T03:46:11.691Z,6.12
2022-08-26T03:49:14.259Z,6.10
2022-08-26T03:52:18.079Z,6.18
2022-08-26T03:55:23.980Z,5.90
2022-08-26T03:58:27.066Z,6.00
2022-08-26T04:01:30.790Z,6.15
2022-08-26T04:04:35.015Z,5.22
2022-08-26T04:07:37.551Z,4.95
2022-08-26T04:13:43.129Z,5.55
2022-08-26T04:19:49.564Z,4.62
2022-08-26T04:22:52.399Z,5.20
2022-08-26T04:25:54.935Z,4.95
2022-08-26T04:32:03.040Z,4.93
2022-08-26T04:35:06.444Z,4.60
2022-08-26T04:38:09.203Z,5.05
2022-08-26T04:44:19.576Z,4.60
2022-08-26T04:47:22.391Z,4.57
2022-08-26T04:50:25.844Z,5.60
2022-08-26T04:53:29.575Z,4.65
2022-08-26T04:56:37.615Z,4.30
2022-08-26T04:59:40.531Z,4.45
2022-08-26T05:02:43.230Z,4.60
2022-08-26T05:08:49.110Z,3.85
2022-08-26T05:14:55.196Z,4.82
2022-08-26T05:17:59.226Z,4.00
2022-08-26T05:21:04.707Z,3.62
2022-08-26T05:24:11.835Z,3.72
2022-08-26T05:27:14.862Z,3.80
2022-08-26T05:30:18.310Z,3.62
2022-08-26T05:33:22.091Z,3.50
2022-08-26T05:36:28.100Z,3.97
2022-08-26T05:39:33.043Z,3.83
2022-08-26T05:42:35.992Z,3.92
2022-08-26T05:45:46.097Z,3.35
2022-08-26T05:48:49.390Z,4.45
2022-08-26T05:51:53.412Z,3.65
2022-08-26T05:57:58.537Z,3.00
2022-08-26T06:01:16.458Z,3.45
2022-08-26T06:04:19.998Z,3.28
2022-08-26T06:07:42.731Z,3.30
2022-08-26T06:10:52.579Z,3.45
2022-08-26T06:14:03.136Z,3.53
2022-08-26T06:17:06.965Z,3.45
2022-08-26T06:20:12.200Z,3.22
2022-08-26T06:23:36.441Z,3.72
2022-08-26T06:26:39.991Z,3.72
2022-08-26T06:29:45.667Z,3.00
2022-08-26T06:32:48.888Z,3.53
2022-08-26T06:35:53.645Z,4.47
2022-08-26T06:39:02.328Z,3.08
2022-08-26T06:42:06.107Z,2.87
2022-08-26T06:45:09.811Z,2.90
2022-08-26T06:48:16.083Z,2.65
2022-08-26T06:51:23.797Z,2.95
2022-08-26T06:54:28.437Z,2.85
2022-08-26T06:57:32.940Z,3.20
2022-08-26T07:00:39.316Z,2.70
2022-08-26T07:03:44.373Z,3.53
2022-08-26T07:06:52.951Z,2.80
2022-08-26T07:09:56.151Z,2.78
2022-08-26T07:13:00.821Z,2.85
2022-08-26T07:16:08.662Z,3.08
2022-08-26T07:19:12.427Z,2.53
2022-08-26T07:22:15.368Z,2.58
2022-08-26T07:25:19.470Z,2.87
2022-08-26T07:28:23.607Z,2.75
2022-08-26T07:31:34.768Z,3.12
2022-08-26T07:34:42.466Z,3.05
2022-08-26T07:37:45.370Z,2.83
2022-08-26T07:43:52.439Z,2.92
2022-08-26T07:46:55.880Z,3.15
2022-08-26T07:49:59.767Z,3.30
2022-08-26T07:53:03.767Z,3.08
2022-08-26T07:56:07.500Z,2.78
2022-08-26T07:59:14.095Z,3.42
2022-08-26T08:02:18.099Z,3.12
2022-08-26T08:05:22.657Z,3.17
2022-08-26T08:08:31.064Z,4.25
2022-08-26T08:11:34.415Z,2.87
2022-08-26T08:14:37.611Z,2.72
2022-08-26T08:17:43.366Z,2.95
2022-08-26T08:20:59.248Z,3.03
2022-08-26T08:24:08.166Z,2.85
2022-08-26T08:27:10.775Z,2.78
2022-08-26T08:30:15.829Z,2.95
2022-08-26T08:33:26.120Z,3.15
2022-08-26T08:36:33.654Z,2.90
2022-08-26T08:39:38.920Z,2.85
2022-08-26T08:43:10.606Z,3.75
2022-08-26T08:46:16.772Z,2.80
2022-08-26T08:49:25.918Z,2.70
2022-08-26T08:52:32.353Z,2.65
2022-08-26T08:56:13.825Z,2.50
2022-08-26T08:59:24.230Z,2.50
2022-08-26T09:02:37.097Z,3.08
2022-08-26T09:05:48.549Z,3.08
2022-08-26T09:08:52.183Z,3.58
2022-08-26T09:11:56.375Z,2.67
2022-08-26T09:15:14.966Z,1.92
2022-08-26T09:18:30.193Z,2.80
2022-08-26T09:21:33.486Z,2.80
2022-08-26T09:24:42.153Z,2.70
2022-08-26T09:27:53.541Z,3.03
2022-08-26T09:31:19.426Z,2.78
2022-08-26T09:34:27.825Z,3.70
2022-08-26T09:37:33.406Z,3.83
2022-08-26T09:40:36.684Z,3.03
2022-08-26T09:43:39.199Z,2.97
2022-08-26T09:46:52.274Z,3.25
2022-08-26T09:50:28.927Z,2.45
2022-08-26T09:53:37.085Z,3.42
2022-08-26T09:56:40.084Z,2.30
2022-08-26T09:59:43.810Z,2.67
2022-08-26T10:02:47.533Z,2.75
2022-08-26T10:06:17.424Z,2.62
2022-08-26T10:09:20.711Z,2.65
2022-08-26T10:12:23.596Z,2.75
2022-08-26T10:15:38.396Z,2.78
2022-08-26T10:18:46.422Z,2.25
2022-08-26T10:22:03.528Z,2.58
2022-08-26T10:25:12.692Z,2.85
2022-08-26T10:28:26.908Z,2.83
2022-08-26T10:31:40.166Z,2.72
2022-08-26T10:34:43.932Z,3.05
2022-08-26T10:37:56.490Z,2.70
2022-08-26T10:41:13.731Z,3.00
2022-08-26T10:44:20.976Z,2.40
2022-08-26T10:47:35.251Z,3.03
2022-08-26T10:50:47.594Z,2.60
2022-08-26T10:54:11.904Z,2.47
2022-08-26T10:57:47.208Z,2.80
2022-08-26T11:04:38.361Z,2.33
2022-08-26T11:07:46.294Z,2.60
2022-08-26T11:10:52.095Z,3.12
2022-08-26T11:14:01.259Z,2.50
2022-08-26T11:17:04.836Z,2.90
2022-08-26T11:20:29.187Z,2.65
2022-08-26T11:23:31.901Z,2.85
2022-08-26T11:26:55.758Z,2.50
2022-08-26T11:30:04.950Z,2.90
2022-08-26T11:33:08.494Z,2.58
2022-08-26T11:36:28.072Z,2.92
2022-08-26T11:39:36.575Z,3.08
2022-08-26T11:43:03.000Z,2.65
2022-08-26T11:46:07.500Z,2.47
2022-08-26T11:49:12.996Z,2.78
2022-08-26T11:52:22.080Z,2.67
2022-08-26T11:55:24.902Z,2.97
2022-08-26T11:58:28.789Z,2.60
2022-08-26T12:01:35.730Z,2.65
2022-08-26T12:04:43.083Z,2.72
2022-08-26T12:07:50.848Z,2.67
2022-08-26T12:11:09.422Z,2.28
2022-08-26T12:14:27.656Z,2.72
2022-08-26T12:17:31.839Z,2.55
2022-08-26T12:20:48.229Z,2.30
2022-08-26T12:23:56.599Z,2.25
2022-08-26T12:27:11.169Z,2.45
2022-08-26T12:30:21.863Z,2.33
2022-08-26T12:33:26.082Z,2.92
2022-08-26T12:36:42.951Z,2.50
2022-08-26T12:39:48.052Z,2.40
2022-08-26T12:42:51.144Z,2.33
2022-08-26T12:46:02.241Z,2.15
2022-08-26T12:49:07.774Z,3.30
2022-08-26T12:52:31.490Z,2.40
2022-08-26T12:55:52.833Z,2.60
2022-08-26T12:59:21.773Z,2.40
2022-08-26T13:02:38.348Z,2.60
2022-08-26T13:05:40.852Z,2.72
2022-08-26T13:08:51.802Z,2.87
2022-08-26T13:11:54.292Z,2.28
2022-08-26T13:14:58.825Z,2.30
2022-08-26T13:18:02.382Z,2.53
2022-08-26T13:21:19.243Z,2.47
2022-08-26T13:24:38.161Z,2.65
2022-08-26T13:27:40.980Z,2.87
2022-08-26T13:30:47.833Z,2.33
2022-08-26T13:33:51.185Z,3.03
2022-08-26T13:36:56.276Z,2.80
2022-08-26T13:39:59.177Z,2.83
2022-08-26T13:43:01.903Z,2.97
2022-08-26T13:46:04.984Z,3.50
2022-08-26T13:49:08.084Z,2.72
2022-08-26T13:52:13.222Z,2.90
2022-08-26T13:55:17.049Z,2.78
2022-08-26T13:58:20.762Z,2.97
2022-08-26T14:01:23.744Z,2.80
2022-08-26T14:04:27.535Z,2.60
2022-08-26T14:07:30.169Z,3.12
2022-08-26T14:10:33.562Z,3.03
2022-08-26T14:13:36.511Z,2.87
2022-08-26T14:16:59.544Z,3.28
2022-08-26T14:20:04.943Z,2.90
2022-08-26T14:23:13.974Z,3.15
2022-08-26T14:26:28.658Z,2.70
2022-08-26T14:29:34.651Z,2.35
2022-08-26T14:32:40.652Z,2.67
2022-08-26T14:35:47.931Z,2.28
2022-08-26T14:38:53.663Z,2.17
2022-08-26T14:41:57.010Z,3.08
2022-08-26T14:45:02.985Z,2.33
2022-08-26T14:48:06.092Z,2.83
2022-08-26T14:51:08.766Z,2.25
2022-08-26T14:54:13.037Z,2.35
2022-08-26T14:57:16.047Z,2.28
2022-08-26T15:00:20.538Z,2.55
2022-08-26T15:03:23.086Z,2.45
2022-08-26T15:06:26.244Z,2.70
2022-08-26T15:09:31.820Z,2.10
2022-08-26T15:12:34.792Z,2.90
